Time;durP1;ratioP1;P1;durP2;ratioP2;P2;SDS_P1;SDS_P2;PMS_P1;PMS_P2;Temp;Humidity;BMP_temperature;BMP_pressure;BME280_temperature;BME280_humidity;BME280_pressure;Samples;Min_cycle;Max_cycle;Signal;HPM_P1;HPM_P2
2024/02/29 00:01:55;;;;;;;20.67;16.13;;;8.00;99.90;;;;;;5019021;28;20644;-68
2024/02/29 00:04:21;;;;;;;21.60;15.33;;;8.00;99.90;;;;;;5016364;28;20439;-68
2024/02/29 00:06:47;;;;;;;21.83;15.40;;;8.00;99.90;;;;;;5010753;28;20444;-68
2024/02/29 00:09:12;;;;;;;21.90;16.10;;;8.00;99.90;;;;;;5027196;28;20422;-68
2024/02/29 00:11:38;;;;;;;25.10;16.50;;;7.80;99.90;;;;;;5027478;28;20759;-68
2024/02/29 00:14:03;;;;;;;20.50;15.03;;;7.80;99.90;;;;;;5025153;28;20196;-68
2024/02/29 00:16:29;;;;;;;24.57;17.07;;;7.80;99.90;;;;;;5021488;28;20271;-68
2024/02/29 00:18:55;;;;;;;23.13;15.70;;;7.80;99.90;;;;;;5017692;28;20200;-68
2024/02/29 00:21:20;;;;;;;19.93;15.30;;;7.80;99.90;;;;;;5020423;28;20243;-68
2024/02/29 00:23:46;;;;;;;22.00;15.60;;;7.80;99.90;;;;;;5021725;28;20270;-68
2024/02/29 00:26:14;;;;;;;22.73;16.50;;;7.80;99.90;;;;;;5025839;28;20204;-68
2024/02/29 00:28:40;;;;;;;21.27;15.73;;;7.80;99.90;;;;;;5027676;28;20272;-68
2024/02/29 00:31:05;;;;;;;22.30;14.73;;;7.80;99.90;;;;;;5017279;28;20517;-68
2024/02/29 00:33:31;;;;;;;24.57;16.20;;;7.80;99.90;;;;;;5027129;28;20200;-68
2024/02/29 00:35:56;;;;;;;23.03;15.33;;;7.70;99.90;;;;;;5018301;28;20180;-68
2024/02/29 00:38:22;;;;;;;19.43;14.77;;;7.70;99.90;;;;;;5032067;28;20185;-68
2024/02/29 00:40:48;;;;;;;21.23;15.27;;;7.70;99.90;;;;;;5018973;28;20246;-68
2024/02/29 00:43:13;;;;;;;21.10;15.30;;;7.70;99.90;;;;;;5022856;28;20181;-68
2024/02/29 00:45:39;;;;;;;20.70;15.40;;;7.70;99.90;;;;;;5025746;28;20386;-68
2024/02/29 00:48:05;;;;;;;23.60;16.33;;;7.70;99.90;;;;;;5018922;28;20235;-68
2024/02/29 00:50:32;;;;;;;18.77;13.97;;;7.60;99.90;;;;;;5021561;28;20498;-68
2024/02/29 00:52:58;;;;;;;20.57;14.20;;;7.60;99.90;;;;;;5022319;28;20488;-68
2024/02/29 00:55:24;;;;;;;22.70;15.87;;;7.60;99.90;;;;;;5021389;28;20431;-68
2024/02/29 00:57:51;;;;;;;20.17;14.87;;;7.60;99.90;;;;;;5021192;28;20269;-68
2024/02/29 01:00:17;;;;;;;20.17;13.73;;;7.60;99.90;;;;;;5021566;28;20200;-68
2024/02/29 01:02:43;;;;;;;23.00;16.37;;;7.50;99.90;;;;;;5023985;28;20415;-68
2024/02/29 01:05:08;;;;;;;19.73;14.83;;;7.50;99.90;;;;;;5016863;28;20465;-68
2024/02/29 01:07:34;;;;;;;21.70;14.13;;;7.50;99.90;;;;;;5020629;28;20181;-68
2024/02/29 01:10:00;;;;;;;19.20;14.60;;;7.40;99.90;;;;;;5020137;28;20234;-68
2024/02/29 01:12:26;;;;;;;21.10;13.97;;;7.40;99.90;;;;;;5022918;28;20203;-68
2024/02/29 01:14:51;;;;;;;20.60;14.43;;;7.40;99.90;;;;;;5012286;28;20201;-68
2024/02/29 01:17:17;;;;;;;19.90;14.43;;;7.40;99.90;;;;;;5026274;28;20509;-68
2024/02/29 01:19:42;;;;;;;21.77;15.27;;;7.40;99.90;;;;;;5015942;28;20240;-68
2024/02/29 01:22:09;;;;;;;19.57;13.80;;;7.40;99.90;;;;;;5017072;28;20181;-68
2024/02/29 01:24:35;;;;;;;20.33;15.40;;;7.30;99.90;;;;;;5021689;28;20192;-68
2024/02/29 01:27:00;;;;;;;22.67;14.93;;;7.10;99.90;;;;;;5023639;28;20911;-68
2024/02/29 01:29:26;;;;;;;17.10;13.90;;;7.00;99.90;;;;;;5022905;28;20439;-68
2024/02/29 01:31:52;;;;;;;21.20;14.60;;;6.90;99.90;;;;;;5023472;28;20210;-68
2024/02/29 01:34:19;;;;;;;17.43;13.70;;;6.90;99.90;;;;;;5021554;28;20205;-68
2024/02/29 01:36:45;;;;;;;18.53;12.63;;;6.90;99.90;;;;;;5013463;28;20212;-68
2024/02/29 01:39:10;;;;;;;19.90;13.60;;;6.80;99.90;;;;;;5019441;28;20490;-68
2024/02/29 01:41:36;;;;;;;21.67;13.97;;;6.80;99.90;;;;;;5023921;28;20173;-68
2024/02/29 01:44:02;;;;;;;17.03;12.63;;;6.80;99.90;;;;;;5019573;28;20898;-69
2024/02/29 01:46:28;;;;;;;19.33;13.03;;;6.70;99.90;;;;;;5021462;28;20307;-68
2024/02/29 01:48:54;;;;;;;18.90;13.00;;;6.70;99.90;;;;;;5024342;28;20310;-68
2024/02/29 01:51:21;;;;;;;16.20;11.53;;;6.70;99.90;;;;;;5022823;28;20777;-68
2024/02/29 01:53:47;;;;;;;17.40;13.60;;;6.60;99.90;;;;;;5012461;28;20551;-68
2024/02/29 01:56:13;;;;;;;19.07;13.13;;;6.70;99.90;;;;;;5024889;28;20415;-68
2024/02/29 01:58:39;;;;;;;20.30;13.63;;;6.70;99.90;;;;;;5023377;28;20229;-68
2024/02/29 02:01:05;;;;;;;16.27;12.37;;;6.70;99.90;;;;;;5017638;28;20523;-68
2024/02/29 02:03:31;;;;;;;19.07;14.10;;;6.70;99.90;;;;;;5024002;28;20947;-68
2024/02/29 02:05:56;;;;;;;19.00;13.60;;;6.70;99.90;;;;;;5021720;28;20192;-68
2024/02/29 02:08:23;;;;;;;18.37;11.60;;;6.70;99.90;;;;;;5019309;28;20204;-68
2024/02/29 02:10:49;;;;;;;17.47;13.17;;;6.70;99.90;;;;;;5019163;28;20197;-68
2024/02/29 02:13:15;;;;;;;18.40;13.57;;;6.70;99.90;;;;;;5018658;28;20834;-68
2024/02/29 02:15:41;;;;;;;17.23;13.40;;;6.70;99.90;;;;;;5023860;28;20295;-67
2024/02/29 02:18:06;;;;;;;17.10;13.20;;;6.70;99.90;;;;;;5014821;28;20279;-68
2024/02/29 02:20:32;;;;;;;17.60;13.97;;;6.70;99.90;;;;;;5022392;28;20466;-68
2024/02/29 02:22:58;;;;;;;19.90;14.43;;;6.70;99.90;;;;;;5019846;28;20257;-68
2024/02/29 02:25:23;;;;;;;16.60;12.63;;;6.70;99.90;;;;;;5022994;28;20454;-68
2024/02/29 02:27:49;;;;;;;18.10;13.23;;;6.70;99.90;;;;;;5017778;28;20189;-68
2024/02/29 02:30:15;;;;;;;21.23;14.63;;;6.70;99.90;;;;;;5022777;28;20718;-68
2024/02/29 02:32:40;;;;;;;19.87;13.50;;;6.70;99.90;;;;;;5018830;28;20720;-68
2024/02/29 02:35:06;;;;;;;19.33;14.70;;;6.70;99.90;;;;;;5020775;28;20606;-68
2024/02/29 02:37:33;;;;;;;20.80;14.30;;;6.70;99.90;;;;;;5021744;28;20176;-68
2024/02/29 02:39:59;;;;;;;20.60;15.13;;;6.70;99.90;;;;;;5022614;28;20460;-68
2024/02/29 02:42:25;;;;;;;22.70;16.27;;;6.70;99.90;;;;;;5015242;28;21340;-67
2024/02/29 02:44:51;;;;;;;17.60;13.37;;;6.60;99.90;;;;;;5023348;28;20823;-67
2024/02/29 02:47:16;;;;;;;20.70;15.03;;;6.60;99.90;;;;;;5019369;28;20235;-67
2024/02/29 02:49:42;;;;;;;26.10;14.83;;;6.60;99.90;;;;;;5016581;28;20235;-68
2024/02/29 02:52:08;;;;;;;22.37;14.87;;;6.60;99.90;;;;;;5019074;28;20255;-68
2024/02/29 02:54:34;;;;;;;22.13;13.77;;;6.60;99.90;;;;;;5022164;28;20666;-68
2024/02/29 02:57:00;;;;;;;19.60;14.20;;;6.60;99.90;;;;;;5017833;28;20578;-68
2024/02/29 02:59:27;;;;;;;16.47;13.40;;;6.60;99.90;;;;;;5022631;28;20702;-67
2024/02/29 03:01:52;;;;;;;19.97;14.50;;;6.60;99.90;;;;;;5020158;28;20426;-67
2024/02/29 03:04:18;;;;;;;18.23;12.70;;;6.50;99.90;;;;;;5023015;28;20439;-67
2024/02/29 03:06:43;;;;;;;17.07;13.07;;;6.50;99.90;;;;;;5014632;28;20185;-68
2024/02/29 03:09:11;;;;;;;18.80;13.27;;;6.50;99.90;;;;;;5013189;28;20551;-69
2024/02/29 03:11:37;;;;;;;18.10;12.90;;;6.40;99.90;;;;;;5021582;28;20207;-67
2024/02/29 03:14:02;;;;;;;21.00;12.90;;;6.40;99.90;;;;;;5019380;28;20467;-68
2024/02/29 03:16:28;;;;;;;19.67;12.97;;;6.40;99.90;;;;;;5019647;28;20775;-68
2024/02/29 03:18:54;;;;;;;20.17;13.40;;;6.30;99.90;;;;;;5022836;28;20746;-67
2024/02/29 03:21:19;;;;;;;19.27;13.73;;;6.30;99.90;;;;;;5014239;28;20256;-67
2024/02/29 03:23:45;;;;;;;17.97;13.30;;;6.30;99.90;;;;;;5015451;28;20323;-67
2024/02/29 03:26:11;;;;;;;17.33;12.17;;;6.20;99.90;;;;;;5021512;28;20603;-68
2024/02/29 03:28:36;;;;;;;17.10;13.10;;;6.20;99.90;;;;;;5018709;28;20203;-68
2024/02/29 03:31:03;;;;;;;18.10;12.33;;;6.20;99.90;;;;;;5016656;28;20559;-68
2024/02/29 03:33:28;;;;;;;19.80;12.77;;;6.20;99.90;;;;;;5021206;28;20282;-68
2024/02/29 03:35:54;;;;;;;17.20;12.40;;;6.20;99.90;;;;;;5019724;28;20650;-68
2024/02/29 03:38:19;;;;;;;18.87;12.57;;;6.20;99.90;;;;;;5018311;28;20656;-68
2024/02/29 03:40:45;;;;;;;17.97;12.30;;;6.10;99.90;;;;;;5023275;28;20208;-68
2024/02/29 03:43:11;;;;;;;20.20;12.77;;;6.10;99.90;;;;;;5012212;28;20311;-68
2024/02/29 03:45:36;;;;;;;19.97;13.20;;;6.00;99.90;;;;;;5012803;28;20232;-68
2024/02/29 03:48:02;;;;;;;21.50;12.60;;;6.00;99.90;;;;;;5009809;28;20665;-67
2024/02/29 03:50:27;;;;;;;17.77;11.47;;;6.00;99.90;;;;;;5030034;28;20184;-68
2024/02/29 03:52:53;;;;;;;19.53;12.20;;;6.00;99.90;;;;;;5017678;28;20192;-68
2024/02/29 03:55:19;;;;;;;17.40;11.80;;;6.00;99.90;;;;;;5017096;28;20240;-68
2024/02/29 03:57:44;;;;;;;17.17;11.23;;;6.10;99.90;;;;;;5018495;28;20188;-68
2024/02/29 04:00:13;;;;;;;17.43;12.10;;;6.00;99.90;;;;;;5022720;28;20215;-68
2024/02/29 04:02:39;;;;;;;18.70;11.87;;;6.00;99.90;;;;;;5025136;28;20185;-68
2024/02/29 04:05:07;;;;;;;19.73;12.87;;;6.10;99.90;;;;;;5017378;28;20446;-68
2024/02/29 04:07:42;;;;;;;18.27;13.13;;;6.10;99.90;;;;;;5021229;28;20416;-68
2024/02/29 04:10:10;;;;;;;19.50;13.00;;;6.10;99.90;;;;;;5018841;28;20509;-68
2024/02/29 04:12:36;;;;;;;16.40;10.40;;;6.10;99.90;;;;;;5022753;28;20422;-68
2024/02/29 04:15:01;;;;;;;15.83;11.73;;;6.10;99.90;;;;;;5014574;28;20463;-68
2024/02/29 04:17:29;;;;;;;14.97;10.97;;;6.00;99.90;;;;;;5018320;28;20208;-68
2024/02/29 04:19:55;;;;;;;13.90;10.47;;;5.90;99.90;;;;;;5020050;28;21194;-68
2024/02/29 04:22:21;;;;;;;13.10;10.20;;;5.80;99.90;;;;;;5018581;28;20902;-68
2024/02/29 04:24:47;;;;;;;14.33;9.67;;;5.80;99.90;;;;;;5020052;28;20204;-68
2024/02/29 04:27:12;;;;;;;12.90;9.63;;;5.80;99.90;;;;;;5021194;28;20430;-68
2024/02/29 04:29:38;;;;;;;14.30;10.53;;;5.90;99.90;;;;;;5018302;28;20271;-68
2024/02/29 04:32:03;;;;;;;16.17;11.33;;;5.80;99.90;;;;;;5013461;28;20263;-68
2024/02/29 04:34:29;;;;;;;17.47;11.73;;;5.80;99.90;;;;;;5019363;28;20208;-68
2024/02/29 04:36:55;;;;;;;17.07;11.70;;;5.80;99.90;;;;;;5020254;28;20203;-68
2024/02/29 04:39:20;;;;;;;19.47;12.30;;;5.80;99.90;;;;;;5018896;28;20273;-69
2024/02/29 04:41:46;;;;;;;16.23;12.80;;;5.80;99.90;;;;;;5022503;28;20633;-68
2024/02/29 04:44:12;;;;;;;17.50;13.50;;;5.80;99.90;;;;;;5020434;28;20211;-67
2024/02/29 04:46:37;;;;;;;18.13;11.77;;;5.80;99.90;;;;;;5018393;28;20287;-67
2024/02/29 04:49:04;;;;;;;16.67;11.30;;;5.70;99.90;;;;;;5016110;28;20177;-67
2024/02/29 04:51:29;;;;;;;14.80;10.63;;;5.60;99.90;;;;;;5019617;28;20180;-68
2024/02/29 04:53:55;;;;;;;17.30;12.00;;;5.50;99.90;;;;;;5016434;28;21198;-68
2024/02/29 04:56:20;;;;;;;16.53;10.80;;;5.40;99.90;;;;;;5021514;28;20672;-68
2024/02/29 04:58:46;;;;;;;16.50;11.10;;;5.20;99.90;;;;;;5026777;28;20177;-68
2024/02/29 05:01:13;;;;;;;17.30;11.00;;;5.20;99.90;;;;;;5020174;28;20212;-67
2024/02/29 05:03:38;;;;;;;19.83;12.37;;;5.10;99.90;;;;;;5025219;28;20192;-67
2024/02/29 05:06:04;;;;;;;16.30;11.97;;;5.10;99.90;;;;;;5025797;28;20913;-67
2024/02/29 05:08:30;;;;;;;18.90;11.90;;;5.10;99.90;;;;;;5023657;28;20575;-67
2024/02/29 05:10:55;;;;;;;17.33;11.70;;;5.20;99.90;;;;;;5021216;28;20185;-67
2024/02/29 05:13:21;;;;;;;14.07;10.97;;;5.20;99.90;;;;;;5020938;28;20215;-68
2024/02/29 05:15:46;;;;;;;18.40;12.27;;;5.10;99.90;;;;;;5021445;28;20245;-68
2024/02/29 05:18:12;;;;;;;20.63;12.50;;;5.10;99.90;;;;;;5021962;28;20329;-68
2024/02/29 05:20:38;;;;;;;21.17;12.83;;;5.00;99.90;;;;;;5023826;28;20220;-68
2024/02/29 05:23:04;;;;;;;21.10;13.03;;;5.00;99.90;;;;;;5020982;28;20534;-68
2024/02/29 05:25:29;;;;;;;21.87;14.47;;;4.90;99.90;;;;;;5021481;28;20208;-67
2024/02/29 05:27:55;;;;;;;21.87;13.50;;;4.80;99.90;;;;;;5025092;28;20565;-67
2024/02/29 05:30:20;;;;;;;20.20;13.30;;;4.70;99.90;;;;;;5018547;28;20197;-67
2024/02/29 05:32:49;;;;;;;24.03;14.10;;;4.70;99.90;;;;;;5024641;28;20215;-67
2024/02/29 05:35:15;;;;;;;21.67;14.20;;;4.60;99.90;;;;;;5025879;28;20211;-67
2024/02/29 05:37:41;;;;;;;19.37;14.30;;;4.60;99.90;;;;;;5025098;28;20451;-68
2024/02/29 05:40:07;;;;;;;21.60;14.40;;;4.60;99.90;;;;;;5021131;28;20220;-68
2024/02/29 05:42:33;;;;;;;21.50;13.90;;;4.60;99.90;;;;;;5018384;28;20189;-68
2024/02/29 05:44:59;;;;;;;22.30;14.20;;;4.40;99.90;;;;;;5022190;28;20452;-68
2024/02/29 05:47:24;;;;;;;18.80;13.67;;;4.50;99.90;;;;;;5020682;28;20535;-67
2024/02/29 05:49:50;;;;;;;20.00;13.63;;;4.40;99.90;;;;;;5018718;28;20430;-67
2024/02/29 05:52:17;;;;;;;18.80;13.20;;;4.50;99.90;;;;;;5020903;28;20204;-67
2024/02/29 05:54:43;;;;;;;20.40;13.30;;;4.30;99.90;;;;;;5021570;28;20639;-67
2024/02/29 05:57:09;;;;;;;23.67;15.37;;;4.20;99.90;;;;;;5019461;28;20943;-67
2024/02/29 05:59:34;;;;;;;18.17;13.57;;;4.10;99.90;;;;;;5019663;28;20470;-67
2024/02/29 06:02:00;;;;;;;23.73;14.20;;;4.10;99.90;;;;;;5024289;28;20195;-68
2024/02/29 06:04:25;;;;;;;19.63;13.03;;;4.00;99.90;;;;;;5019813;28;20204;-67
2024/02/29 06:06:51;;;;;;;19.90;13.00;;;4.00;99.90;;;;;;5018233;28;20664;-68
2024/02/29 06:09:17;;;;;;;49.17;17.57;;;4.00;99.90;;;;;;5012010;28;20189;-67
2024/02/29 06:11:42;;;;;;;18.17;12.60;;;4.00;99.90;;;;;;5024283;28;20282;-67
2024/02/29 06:14:08;;;;;;;24.30;14.70;;;3.90;99.90;;;;;;5024970;28;20214;-67
2024/02/29 06:16:34;;;;;;;23.77;14.40;;;3.90;99.90;;;;;;5015469;28;20242;-67
2024/02/29 06:19:00;;;;;;;21.90;13.60;;;3.80;99.90;;;;;;5018404;28;20918;-67
2024/02/29 06:21:25;;;;;;;23.93;15.43;;;3.80;99.90;;;;;;5019904;28;20181;-67
2024/02/29 06:23:53;;;;;;;22.63;14.70;;;3.90;99.90;;;;;;5024110;28;20309;-67
2024/02/29 06:26:19;;;;;;;26.63;15.30;;;3.90;99.90;;;;;;5016622;28;20195;-67
2024/02/29 06:28:44;;;;;;;21.13;13.47;;;3.90;99.90;;;;;;5022760;28;20411;-67
2024/02/29 06:31:10;;;;;;;22.67;13.10;;;3.90;99.90;;;;;;5017086;28;20247;-67
2024/02/29 06:33:36;;;;;;;20.80;13.70;;;4.00;99.90;;;;;;5024727;28;20635;-67
2024/02/29 06:36:03;;;;;;;24.53;17.03;;;4.00;99.90;;;;;;5023937;28;20655;-67
2024/02/29 06:38:29;;;;;;;27.30;14.97;;;4.00;99.90;;;;;;5021437;28;20427;-67
2024/02/29 06:40:55;;;;;;;25.67;14.07;;;4.00;99.90;;;;;;5022254;28;20473;-67
2024/02/29 06:43:20;;;;;;;23.27;15.40;;;4.00;99.90;;;;;;5017596;28;20570;-67
2024/02/29 06:45:48;;;;;;;20.43;13.50;;;4.00;99.90;;;;;;5021384;28;20195;-67
2024/02/29 06:48:15;;;;;;;20.70;14.30;;;4.00;99.90;;;;;;5019424;28;20280;-67
2024/02/29 06:50:41;;;;;;;22.30;13.07;;;4.00;99.90;;;;;;5016112;28;20431;-67
2024/02/29 06:53:06;;;;;;;31.53;14.90;;;4.10;99.90;;;;;;5017675;28;20446;-67
2024/02/29 06:55:32;;;;;;;20.57;15.07;;;4.10;99.90;;;;;;5019590;28;20262;-67
2024/02/29 06:57:58;;;;;;;18.53;13.73;;;4.10;99.90;;;;;;5019711;28;20635;-67
2024/02/29 07:00:24;;;;;;;20.80;13.80;;;4.10;99.90;;;;;;5015999;28;20219;-67
2024/02/29 07:02:50;;;;;;;19.33;14.10;;;4.20;99.90;;;;;;5022628;28;20215;-67
2024/02/29 07:05:16;;;;;;;20.80;14.17;;;4.20;99.90;;;;;;5019786;28;20485;-67
2024/02/29 07:07:45;;;;;;;16.87;13.30;;;4.10;99.90;;;;;;5021120;28;20189;-67
2024/02/29 07:10:11;;;;;;;16.17;11.97;;;4.00;99.90;;;;;;5020815;28;20473;-67
2024/02/29 07:12:37;;;;;;;18.10;13.20;;;3.90;99.90;;;;;;5020807;28;20478;-67
2024/02/29 07:15:04;;;;;;;19.37;13.70;;;4.00;99.90;;;;;;5020757;28;20447;-67
2024/02/29 07:17:29;;;;;;;17.83;13.20;;;3.90;99.90;;;;;;5018491;28;20868;-67
2024/02/29 07:19:56;;;;;;;17.40;13.03;;;4.00;99.90;;;;;;5019969;28;20454;-67
2024/02/29 07:22:21;;;;;;;18.80;12.93;;;3.90;99.90;;;;;;5016730;28;20212;-67
2024/02/29 07:24:47;;;;;;;16.47;11.70;;;3.90;99.90;;;;;;5020922;28;20470;-67
2024/02/29 07:27:15;;;;;;;16.17;11.40;;;3.90;99.90;;;;;;5024078;28;20239;-67
2024/02/29 07:29:41;;;;;;;14.87;10.90;;;4.00;99.90;;;;;;5020680;28;20581;-67
2024/02/29 07:32:07;;;;;;;18.83;12.00;;;4.00;99.90;;;;;;5021149;28;20518;-67
2024/02/29 07:34:34;;;;;;;16.47;12.30;;;3.90;99.90;;;;;;5020265;28;20350;-67
2024/02/29 07:36:59;;;;;;;15.10;12.10;;;4.00;99.90;;;;;;5026795;28;20184;-67
2024/02/29 07:39:25;;;;;;;21.47;12.83;;;4.00;99.90;;;;;;5017638;28;20460;-67
2024/02/29 07:41:51;;;;;;;18.77;12.57;;;4.10;99.90;;;;;;5019599;28;20169;-67
2024/02/29 07:44:16;;;;;;;21.73;14.57;;;4.20;99.90;;;;;;5020475;28;20215;-67
2024/02/29 07:46:42;;;;;;;15.73;12.03;;;4.30;99.90;;;;;;5020401;28;20226;-68
2024/02/29 07:49:07;;;;;;;19.20;13.97;;;4.40;99.90;;;;;;5020007;28;20169;-67
2024/02/29 07:51:33;;;;;;;19.37;13.10;;;4.40;99.90;;;;;;5022634;28;20180;-67
2024/02/29 07:53:59;;;;;;;21.23;14.17;;;4.40;99.90;;;;;;5018211;28;20212;-67
2024/02/29 07:56:24;;;;;;;16.97;12.20;;;4.50;99.90;;;;;;5023268;28;20171;-67
2024/02/29 07:58:50;;;;;;;15.50;11.40;;;4.50;99.90;;;;;;5019094;28;20287;-67
2024/02/29 08:01:16;;;;;;;19.93;12.60;;;4.60;99.90;;;;;;5021985;28;20208;-67
2024/02/29 08:03:41;;;;;;;14.67;11.37;;;4.70;99.90;;;;;;5021586;28;20235;-67
2024/02/29 08:06:07;;;;;;;15.07;10.23;;;4.70;99.90;;;;;;5020059;28;20200;-67
2024/02/29 08:08:33;;;;;;;15.50;11.27;;;4.80;99.90;;;;;;5017021;28;20185;-67
2024/02/29 08:10:59;;;;;;;14.90;11.20;;;4.80;99.90;;;;;;5019890;28;20498;-67
2024/02/29 08:13:25;;;;;;;16.80;11.20;;;4.90;99.90;;;;;;5014665;28;20221;-67
2024/02/29 08:15:50;;;;;;;14.40;11.00;;;5.10;99.90;;;;;;5018685;28;20513;-67
2024/02/29 08:18:16;;;;;;;17.70;11.83;;;5.20;99.90;;;;;;5021928;28;20201;-66
2024/02/29 08:20:43;;;;;;;16.40;11.80;;;5.20;99.90;;;;;;5020665;28;20616;-67
2024/02/29 08:23:11;;;;;;;18.17;12.23;;;5.30;99.90;;;;;;5024785;28;20180;-67
2024/02/29 08:25:37;;;;;;;15.53;11.33;;;5.40;99.90;;;;;;5018637;28;20498;-67
2024/02/29 08:28:03;;;;;;;15.70;12.30;;;5.50;99.90;;;;;;5015793;28;20428;-67
2024/02/29 08:30:29;;;;;;;17.20;11.57;;;5.50;99.90;;;;;;5027145;28;20913;-67
2024/02/29 08:32:54;;;;;;;16.13;11.43;;;5.60;99.90;;;;;;5022522;28;20549;-67
2024/02/29 08:35:20;;;;;;;17.93;12.90;;;5.70;99.90;;;;;;5027469;28;20208;-67
2024/02/29 08:37:45;;;;;;;16.27;12.77;;;5.70;99.90;;;;;;5026167;28;20230;-67
2024/02/29 08:40:12;;;;;;;16.40;11.53;;;5.70;99.90;;;;;;5022439;28;20284;-67
2024/02/29 08:42:37;;;;;;;18.03;12.00;;;5.80;99.90;;;;;;5021975;28;20271;-67
2024/02/29 08:45:03;;;;;;;20.90;11.87;;;5.80;99.90;;;;;;5025359;28;20513;-67
2024/02/29 08:47:29;;;;;;;19.57;12.40;;;5.90;99.90;;;;;;5020713;28;20624;-66
2024/02/29 08:49:55;;;;;;;15.33;12.43;;;6.00;99.90;;;;;;5023398;28;20419;-67
2024/02/29 08:52:20;;;;;;;15.73;12.33;;;6.00;99.90;;;;;;5024392;28;20183;-67
2024/02/29 08:54:46;;;;;;;19.90;14.03;;;6.10;99.90;;;;;;5027341;28;20629;-67
2024/02/29 08:57:11;;;;;;;20.80;14.47;;;6.20;99.90;;;;;;5024043;28;20180;-67
2024/02/29 08:59:37;;;;;;;17.30;12.60;;;6.20;99.90;;;;;;5018066;28;20703;-67
2024/02/29 09:02:05;;;;;;;18.70;12.80;;;6.20;99.90;;;;;;5023553;28;20651;-67
2024/02/29 09:04:30;;;;;;;15.17;11.60;;;6.30;99.90;;;;;;5026501;28;20434;-66
2024/02/29 09:06:56;;;;;;;15.60;11.50;;;6.40;99.90;;;;;;5021209;28;20511;-66
2024/02/29 09:09:22;;;;;;;16.63;12.17;;;6.40;99.90;;;;;;5022728;28;20504;-67
2024/02/29 09:11:48;;;;;;;17.23;12.50;;;6.50;99.90;;;;;;5024004;28;20200;-67
2024/02/29 09:14:13;;;;;;;20.37;14.43;;;6.60;99.90;;;;;;5022912;28;20646;-67
2024/02/29 09:16:39;;;;;;;19.23;13.03;;;6.60;99.90;;;;;;5021900;28;20184;-67
2024/02/29 09:19:04;;;;;;;20.07;14.43;;;6.70;99.90;;;;;;5025996;28;20326;-67
2024/02/29 09:21:30;;;;;;;18.57;13.73;;;6.80;99.90;;;;;;5021338;28;20192;-66
2024/02/29 09:23:56;;;;;;;27.77;15.93;;;6.80;99.90;;;;;;5024359;28;20239;-66
2024/02/29 09:26:22;;;;;;;22.87;15.50;;;6.90;99.90;;;;;;5021820;28;20215;-67
2024/02/29 09:28:48;;;;;;;21.93;15.10;;;7.00;99.90;;;;;;5022470;28;20177;-66
2024/02/29 09:31:14;;;;;;;22.40;16.03;;;7.10;99.90;;;;;;5022822;28;20806;-66
2024/02/29 09:33:40;;;;;;;23.80;15.90;;;7.10;99.90;;;;;;5027683;28;20279;-67
2024/02/29 09:36:13;;;;;;;26.23;17.57;;;7.10;99.90;;;;;;5024829;28;20184;-67
2024/02/29 09:38:39;;;;;;;24.33;16.57;;;7.20;99.90;;;;;;5023555;28;20893;-67
2024/02/29 09:41:06;;;;;;;21.73;15.60;;;7.30;99.90;;;;;;5020160;28;20463;-67
2024/02/29 09:43:33;;;;;;;23.80;17.00;;;7.30;99.90;;;;;;5022828;28;20530;-66
2024/02/29 09:46:05;;;;;;;27.83;16.80;;;7.30;99.90;;;;;;5021358;28;20895;-67
2024/02/29 09:48:32;;;;;;;21.53;15.43;;;7.30;99.90;;;;;;5023334;28;20510;-67
2024/02/29 09:51:00;;;;;;;25.07;17.30;;;7.30;99.90;;;;;;5018210;28;20411;-67
2024/02/29 09:53:27;;;;;;;25.70;17.40;;;7.50;99.90;;;;;;5022895;28;20439;-67
2024/02/29 09:55:56;;;;;;;24.20;16.80;;;7.60;99.90;;;;;;5025698;28;20410;-67
2024/02/29 09:58:22;;;;;;;22.17;16.63;;;7.70;99.90;;;;;;5027008;28;20422;-67
2024/02/29 10:00:48;;;;;;;22.73;16.03;;;7.80;99.90;;;;;;5021808;28;20479;-68
2024/02/29 10:03:16;;;;;;;24.00;17.27;;;7.80;99.90;;;;;;5025420;28;20176;-67
2024/02/29 10:05:46;;;;;;;26.93;19.17;;;7.80;99.90;;;;;;5021558;28;21013;-68
2024/02/29 10:08:12;;;;;;;26.87;18.33;;;7.80;99.90;;;;;;5023156;28;21287;-67
2024/02/29 10:10:38;;;;;;;27.57;19.10;;;7.90;99.90;;;;;;5022092;28;20738;-67
2024/02/29 10:13:06;;;;;;;28.63;18.83;;;8.00;99.90;;;;;;5025263;28;20422;-67
2024/02/29 10:15:32;;;;;;;27.73;17.80;;;8.00;99.90;;;;;;5018434;28;20193;-67
2024/02/29 10:17:58;;;;;;;30.50;19.83;;;8.00;99.90;;;;;;5024641;28;20443;-67
2024/02/29 10:20:25;;;;;;;27.97;19.27;;;8.00;99.90;;;;;;5024670;28;20473;-66
2024/02/29 10:22:53;;;;;;;29.97;18.87;;;8.10;99.90;;;;;;5024299;28;20419;-67
2024/02/29 10:25:22;;;;;;;26.83;18.67;;;8.20;99.90;;;;;;5022546;28;20451;-67
2024/02/29 10:27:48;;;;;;;29.20;19.23;;;8.20;99.90;;;;;;5025131;28;20411;-67
2024/02/29 10:30:15;;;;;;;30.70;19.97;;;8.30;99.90;;;;;;5019738;28;20420;-67
2024/02/29 10:32:42;;;;;;;30.80;19.50;;;8.40;99.90;;;;;;5020793;28;20255;-67
2024/02/29 10:35:34;;;;;;;29.67;20.37;;;8.50;99.90;;;;;;5023697;28;20968;-67
2024/02/29 10:38:00;;;;;;;24.70;17.70;;;8.50;99.90;;;;;;5021642;28;20438;-67
2024/02/29 10:40:25;;;;;;;29.30;17.80;;;8.60;99.90;;;;;;5025829;28;20541;-67
2024/02/29 10:42:55;;;;;;;27.10;18.80;;;8.60;99.90;;;;;;5023538;28;20753;-67
2024/02/29 10:45:24;;;;;;;25.93;18.10;;;8.80;99.90;;;;;;5024492;28;20192;-67
2024/02/29 10:48:16;;;;;;;27.20;17.27;;;8.80;99.90;;;;;;5023825;28;20422;-67
2024/02/29 10:51:16;;;;;;;25.17;18.13;;;8.90;99.90;;;;;;5017962;28;20434;-67
2024/02/29 10:54:08;;;;;;;22.43;16.40;;;9.00;99.90;;;;;;5020706;28;20561;-67
2024/02/29 10:56:35;;;;;;;22.67;18.17;;;9.10;99.90;;;;;;5025933;28;20417;-67
2024/02/29 10:59:07;;;;;;;24.60;17.17;;;9.20;99.90;;;;;;5019452;28;20428;-67
2024/02/29 11:01:36;;;;;;;26.53;18.20;;;9.20;99.90;;;;;;5021443;28;20419;-67
2024/02/29 11:04:02;;;;;;;26.60;18.33;;;9.30;99.90;;;;;;5017729;28;20873;-67
2024/02/29 11:06:32;;;;;;;27.07;19.67;;;9.40;99.90;;;;;;5024038;28;20983;-68
2024/02/29 11:08:59;;;;;;;27.50;19.40;;;9.30;99.90;;;;;;5015840;28;20408;-67
2024/02/29 11:11:25;;;;;;;31.60;18.60;;;9.40;99.90;;;;;;5023293;28;20422;-68
2024/02/29 11:14:09;;;;;;;31.03;20.90;;;9.50;99.90;;;;;;5016964;28;20448;-67
2024/02/29 11:16:43;;;;;;;29.47;20.30;;;9.60;99.90;;;;;;5020600;28;20758;-67
2024/02/29 11:19:13;;;;;;;30.40;21.30;;;9.60;99.90;;;;;;5024054;28;20514;-67
2024/02/29 11:21:40;;;;;;;26.10;20.27;;;9.80;99.90;;;;;;5017691;28;20543;-67
2024/02/29 11:24:15;;;;;;;25.10;19.57;;;9.90;99.90;;;;;;5021663;28;21059;-67
2024/02/29 11:26:41;;;;;;;25.13;19.40;;;9.90;99.90;;;;;;5019282;28;20172;-67
2024/02/29 11:29:14;;;;;;;28.73;21.20;;;10.00;99.90;;;;;;5017294;28;20469;-67
2024/02/29 11:31:44;;;;;;;39.40;21.30;;;10.00;99.90;;;;;;5018979;28;20431;-67
2024/02/29 11:34:11;;;;;;;33.53;20.83;;;10.10;99.90;;;;;;5024967;28;20450;-67
2024/02/29 11:36:37;;;;;;;24.57;18.37;;;10.20;99.90;;;;;;5021819;28;20908;-67
2024/02/29 11:39:04;;;;;;;30.47;20.77;;;10.30;99.90;;;;;;5018486;28;20435;-67
2024/02/29 11:41:30;;;;;;;28.87;20.37;;;10.40;99.90;;;;;;5015687;28;20471;-68
2024/02/29 11:43:56;;;;;;;30.90;22.20;;;10.50;99.90;;;;;;5020655;28;20945;-67
2024/02/29 11:46:22;;;;;;;32.07;23.23;;;10.60;99.90;;;;;;5020560;28;20442;-67
2024/02/29 11:48:48;;;;;;;27.40;20.40;;;10.70;99.90;;;;;;5020815;28;20580;-67
2024/02/29 11:51:15;;;;;;;30.60;21.27;;;10.80;99.90;;;;;;5020353;28;20276;-67
2024/02/29 11:53:40;;;;;;;26.13;19.80;;;11.00;99.90;;;;;;5025182;28;20435;-68
2024/02/29 11:56:06;;;;;;;30.67;19.87;;;11.10;99.90;;;;;;5016057;28;20813;-68
2024/02/29 11:58:35;;;;;;;26.30;18.07;;;11.30;99.90;;;;;;5022184;28;20196;-68
2024/02/29 12:01:01;;;;;;;25.63;18.83;;;11.50;99.90;;;;;;5018160;28;20475;-68
2024/02/29 12:03:28;;;;;;;25.27;18.27;;;11.70;99.90;;;;;;5023032;28;20419;-68
2024/02/29 12:05:56;;;;;;;23.37;18.30;;;12.00;99.90;;;;;;5018123;28;20489;-67
2024/02/29 12:08:26;;;;;;;22.67;17.93;;;12.30;99.90;;;;;;5024166;28;20514;-66
2024/02/29 12:10:53;;;;;;;29.10;21.00;;;12.70;99.90;;;;;;5022142;28;20430;-67
2024/02/29 12:13:20;;;;;;;24.20;19.60;;;13.80;99.90;;;;;;5023834;28;20941;-67
2024/02/29 12:15:46;;;;;;;25.83;18.60;;;16.00;99.90;;;;;;5019033;28;20445;-67
2024/02/29 12:18:14;;;;;;;22.57;17.50;;;18.60;99.90;;;;;;5023987;28;20439;-68
2024/02/29 12:20:41;;;;;;;25.30;16.70;;;20.90;99.90;;;;;;5024541;28;21041;-67
2024/02/29 12:23:09;;;;;;;21.77;17.97;;;22.60;99.90;;;;;;5020176;28;20443;-67
2024/02/29 12:25:34;;;;;;;19.60;17.60;;;24.00;98.50;;;;;;5025155;28;20455;-68
2024/02/29 12:28:02;;;;;;;23.10;17.60;;;25.20;92.30;;;;;;5018768;28;20438;-67
2024/02/29 12:30:28;;;;;;;18.60;16.80;;;26.20;84.00;;;;;;5022843;28;20173;-69
2024/02/29 12:32:54;;;;;;;19.00;16.73;;;27.10;76.60;;;;;;5023880;28;20540;-68